createdAt,value
2023-02-14T00:09:39.470Z,6.2
2023-02-14T00:25:13.881Z,6
2023-02-14T00:40:48.195Z,7.7
2023-02-14T00:56:22.582Z,6.2
2023-02-14T01:11:56.921Z,5.8
2023-02-14T01:27:31.279Z,5
2023-02-14T01:43:05.812Z,4.7
2023-02-14T01:58:40.117Z,5.5
2023-02-14T02:14:14.436Z,6.2
2023-02-14T02:29:49.525Z,6.3
2023-02-14T02:45:23.929Z,6
2023-02-14T03:00:58.661Z,4.3
2023-02-14T03:16:34.601Z,5.3
2023-02-14T03:32:09.414Z,6.5
2023-02-14T03:47:44.611Z,4.8
2023-02-14T04:03:18.917Z,5.8
2023-02-14T04:18:53.494Z,5.4
2023-02-14T04:34:27.792Z,3.8
2023-02-14T04:50:02.095Z,5.1
2023-02-14T05:05:36.414Z,5
2023-02-14T05:21:10.767Z,3.9
2023-02-14T05:36:45.119Z,4.9
2023-02-14T05:52:19.650Z,4.7
2023-02-14T06:07:54.074Z,3.6
2023-02-14T06:23:28.409Z,4.3
2023-02-14T06:39:02.719Z,3.8
2023-02-14T06:54:37.026Z,2.9
2023-02-14T07:10:11.374Z,4
2023-02-14T07:25:45.702Z,5
2023-02-14T07:41:19.989Z,4.3
2023-02-14T07:56:54.293Z,5.6
2023-02-14T08:12:28.584Z,4.6
2023-02-14T08:28:02.974Z,5.1
2023-02-14T08:43:37.480Z,7.3
2023-02-14T08:59:11.867Z,5.7
2023-02-14T09:14:46.401Z,6.3
2023-02-14T09:30:21.078Z,6.3
2023-02-14T09:45:55.946Z,7.9
2023-02-14T10:01:30.703Z,7.1
2023-02-14T10:17:05.366Z,8
2023-02-14T10:32:39.951Z,7.3
2023-02-14T10:48:14.321Z,5.8
2023-02-14T11:03:48.899Z,6.6
2023-02-14T11:19:23.555Z,6.1
2023-02-14T11:34:58.016Z,8
2023-02-14T11:50:32.387Z,8.9
2023-02-14T12:06:06.772Z,7.5
2023-02-14T12:21:41.319Z,6.7
2023-02-14T12:37:15.772Z,6.1
2023-02-14T12:52:50.202Z,7
2023-02-14T13:08:25.040Z,6.4
2023-02-14T13:23:59.913Z,6
2023-02-14T13:39:36.156Z,4.6
2023-02-14T13:55:16.479Z,7.2
2023-02-14T14:10:50.970Z,4.4
2023-02-14T14:26:26.018Z,6.2
2023-02-14T14:42:00.541Z,6.3
2023-02-14T14:57:35.010Z,6.4
2023-02-14T15:13:09.447Z,7.8
2023-02-14T15:28:43.907Z,5.5
2023-02-14T15:44:19.661Z,5.7
2023-02-14T15:59:54.113Z,5
2023-02-14T16:15:28.627Z,5.9
2023-02-14T16:31:03.856Z,7.3
2023-02-14T16:46:40.854Z,7
2023-02-14T17:02:17.159Z,7.6
2023-02-14T17:17:51.886Z,8
2023-02-14T17:33:26.261Z,6.3
2023-02-14T17:49:01.659Z,8.3
2023-02-14T18:04:36.038Z,8.5
2023-02-14T18:20:10.450Z,7.3
2023-02-14T18:35:44.842Z,7.7
2023-02-14T18:51:19.225Z,7.2
2023-02-14T19:06:53.597Z,8.2
2023-02-14T19:22:28.134Z,9.1
2023-02-14T19:38:02.604Z,10.2
2023-02-14T19:53:37.002Z,9.2
2023-02-14T20:09:13.332Z,8.6
2023-02-14T20:24:47.715Z,9.1
2023-02-14T20:40:22.062Z,8.3
2023-02-14T20:55:56.397Z,9.3
2023-02-14T21:11:30.758Z,12.1
2023-02-14T21:27:05.108Z,9
2023-02-14T21:42:39.456Z,10
2023-02-14T21:58:13.751Z,8
2023-02-14T22:13:48.129Z,7.3
2023-02-14T22:29:22.629Z,7.7
2023-02-14T22:44:56.984Z,7.8
2023-02-14T23:00:31.317Z,8.4
2023-02-14T23:16:05.722Z,8.8
2023-02-14T23:31:40.386Z,9.1
2023-02-14T23:47:15.166Z,8.4
